Millerovo, Russia
Current Conditions -  °F | °C
As of 10:30 AM on Sunday 26 Oct 2014 (Local Time) from URRR Reporting Station
Few Clouds Few Clouds  
Wind Chill: 16°   Ceiling: Unl
Heat Index: 28°   Visibility: 6mi
Dew Point: 16°   Wind: 18mph
Humidity: 59%   Direction: 90°E
Pressure: 30.62"   Gusts: 25mph
Location:  48.93°N, 40.39°E
Report Text: URRR 260730Z 09008G11MPS 9999 FEW026 M02/M09 Q1037 04CLRD70NOSIG
Loading
Personal Weather Stations






























Interactive Weather Map
Tropical Storm Tracking
New forecast layout! Learn more

10-Day Weather Forecast

Advertisements
Track Severe Weather on mobile